sensor_id;sensor_type;location;lat;lon;timestamp;P1;durP1;ratioP1;P2;durP2;ratioP2
8526;SDS011;4301;48.362;8.478;2023-01-25T00:00:26;32.57;;;18.63;;
8526;SDS011;4301;48.362;8.478;2023-01-25T00:02:53;35.17;;;19.23;;
8526;SDS011;4301;48.362;8.478;2023-01-25T00:05:19;33.13;;;18.80;;
8526;SDS011;4301;48.362;8.478;2023-01-25T00:07:46;36.33;;;18.83;;
8526;SDS011;4301;48.362;8.478;2023-01-25T00:10:14;33.97;;;18.27;;
8526;SDS011;4301;48.362;8.478;2023-01-25T00:12:41;37.57;;;18.13;;
8526;SDS011;4301;48.362;8.478;2023-01-25T00:15:09;36.30;;;18.40;;
8526;SDS011;4301;48.362;8.478;2023-01-25T00:17:36;38.87;;;18.63;;
8526;SDS011;4301;48.362;8.478;2023-01-25T00:20:04;34.03;;;18.83;;
8526;SDS011;4301;48.362;8.478;2023-01-25T00:22:31;37.13;;;18.77;;
8526;SDS011;4301;48.362;8.478;2023-01-25T00:24:58;36.70;;;18.73;;
8526;SDS011;4301;48.362;8.478;2023-01-25T00:27:25;53.60;;;18.90;;
8526;SDS011;4301;48.362;8.478;2023-01-25T00:29:52;36.70;;;17.70;;
8526;SDS011;4301;48.362;8.478;2023-01-25T00:35:12;38.43;;;19.03;;
8526;SDS011;4301;48.362;8.478;2023-01-25T00:37:41;43.87;;;19.00;;
8526;SDS011;4301;48.362;8.478;2023-01-25T00:40:09;46.33;;;19.80;;
8526;SDS011;4301;48.362;8.478;2023-01-25T00:42:37;35.13;;;19.40;;
8526;SDS011;4301;48.362;8.478;2023-01-25T00:45:05;41.20;;;19.53;;
8526;SDS011;4301;48.362;8.478;2023-01-25T00:47:33;45.50;;;19.90;;
8526;SDS011;4301;48.362;8.478;2023-01-25T00:50:01;39.53;;;18.63;;
8526;SDS011;4301;48.362;8.478;2023-01-25T00:52:29;42.53;;;19.40;;
8526;SDS011;4301;48.362;8.478;2023-01-25T00:54:56;35.30;;;19.20;;
8526;SDS011;4301;48.362;8.478;2023-01-25T00:57:23;36.53;;;20.37;;
8526;SDS011;4301;48.362;8.478;2023-01-25T00:59:49;36.37;;;18.87;;
8526;SDS011;4301;48.362;8.478;2023-01-25T01:02:16;40.90;;;19.17;;
8526;SDS011;4301;48.362;8.478;2023-01-25T01:04:43;38.87;;;19.33;;
8526;SDS011;4301;48.362;8.478;2023-01-25T01:07:12;36.87;;;18.57;;
8526;SDS011;4301;48.362;8.478;2023-01-25T01:09:40;35.77;;;18.93;;
8526;SDS011;4301;48.362;8.478;2023-01-25T01:12:07;39.57;;;18.70;;
8526;SDS011;4301;48.362;8.478;2023-01-25T01:14:34;38.80;;;19.87;;
8526;SDS011;4301;48.362;8.478;2023-01-25T01:17:01;40.37;;;19.03;;
8526;SDS011;4301;48.362;8.478;2023-01-25T01:19:28;41.57;;;20.33;;
8526;SDS011;4301;48.362;8.478;2023-01-25T01:21:55;40.53;;;19.73;;
8526;SDS011;4301;48.362;8.478;2023-01-25T01:24:23;36.33;;;19.43;;
8526;SDS011;4301;48.362;8.478;2023-01-25T01:26:50;38.30;;;19.50;;
8526;SDS011;4301;48.362;8.478;2023-01-25T01:29:17;33.27;;;18.57;;
8526;SDS011;4301;48.362;8.478;2023-01-25T01:31:44;33.63;;;18.37;;
8526;SDS011;4301;48.362;8.478;2023-01-25T01:34:11;37.93;;;18.90;;
8526;SDS011;4301;48.362;8.478;2023-01-25T01:36:39;39.10;;;20.13;;
8526;SDS011;4301;48.362;8.478;2023-01-25T01:39:06;38.70;;;20.00;;
8526;SDS011;4301;48.362;8.478;2023-01-25T01:41:35;38.83;;;19.07;;
8526;SDS011;4301;48.362;8.478;2023-01-25T01:44:02;35.17;;;18.90;;
8526;SDS011;4301;48.362;8.478;2023-01-25T01:46:30;38.83;;;20.30;;
8526;SDS011;4301;48.362;8.478;2023-01-25T01:49:02;37.17;;;18.97;;
8526;SDS011;4301;48.362;8.478;2023-01-25T01:51:38;37.13;;;19.77;;
8526;SDS011;4301;48.362;8.478;2023-01-25T01:54:11;39.93;;;19.97;;
8526;SDS011;4301;48.362;8.478;2023-01-25T01:56:44;32.23;;;18.90;;
8526;SDS011;4301;48.362;8.478;2023-01-25T01:59:16;32.43;;;18.67;;
8526;SDS011;4301;48.362;8.478;2023-01-25T02:01:44;37.13;;;19.60;;
8526;SDS011;4301;48.362;8.478;2023-01-25T02:04:12;34.93;;;19.17;;
8526;SDS011;4301;48.362;8.478;2023-01-25T02:06:43;35.23;;;19.33;;
8526;SDS011;4301;48.362;8.478;2023-01-25T02:09:13;35.33;;;19.30;;
8526;SDS011;4301;48.362;8.478;2023-01-25T02:11:45;34.83;;;19.73;;
8526;SDS011;4301;48.362;8.478;2023-01-25T02:14:13;34.70;;;19.17;;
8526;SDS011;4301;48.362;8.478;2023-01-25T02:16:40;31.77;;;18.50;;
8526;SDS011;4301;48.362;8.478;2023-01-25T02:19:08;36.10;;;19.83;;
8526;SDS011;4301;48.362;8.478;2023-01-25T02:21:42;36.77;;;20.00;;
8526;SDS011;4301;48.362;8.478;2023-01-25T02:24:11;38.33;;;20.63;;
8526;SDS011;4301;48.362;8.478;2023-01-25T02:26:47;37.60;;;19.20;;
8526;SDS011;4301;48.362;8.478;2023-01-25T02:29:14;34.37;;;20.03;;
8526;SDS011;4301;48.362;8.478;2023-01-25T02:31:43;37.10;;;20.13;;
8526;SDS011;4301;48.362;8.478;2023-01-25T02:34:13;36.13;;;19.13;;
8526;SDS011;4301;48.362;8.478;2023-01-25T02:36:40;39.17;;;20.57;;
8526;SDS011;4301;48.362;8.478;2023-01-25T02:39:08;37.00;;;19.97;;
8526;SDS011;4301;48.362;8.478;2023-01-25T02:41:38;36.80;;;20.17;;
8526;SDS011;4301;48.362;8.478;2023-01-25T02:44:08;36.67;;;20.03;;
8526;SDS011;4301;48.362;8.478;2023-01-25T02:46:39;38.43;;;20.53;;
8526;SDS011;4301;48.362;8.478;2023-01-25T02:49:07;36.63;;;19.40;;
8526;SDS011;4301;48.362;8.478;2023-01-25T02:51:36;37.87;;;19.90;;
8526;SDS011;4301;48.362;8.478;2023-01-25T02:54:04;40.33;;;21.27;;
8526;SDS011;4301;48.362;8.478;2023-01-25T02:56:34;37.60;;;19.83;;
8526;SDS011;4301;48.362;8.478;2023-01-25T02:59:02;41.70;;;19.47;;
8526;SDS011;4301;48.362;8.478;2023-01-25T03:01:31;35.23;;;19.53;;
8526;SDS011;4301;48.362;8.478;2023-01-25T03:03:58;40.33;;;19.90;;
8526;SDS011;4301;48.362;8.478;2023-01-25T03:06:25;44.63;;;21.33;;
8526;SDS011;4301;48.362;8.478;2023-01-25T03:08:52;37.60;;;20.63;;
8526;SDS011;4301;48.362;8.478;2023-01-25T03:11:19;37.90;;;20.07;;
8526;SDS011;4301;48.362;8.478;2023-01-25T03:13:46;42.23;;;20.23;;
8526;SDS011;4301;48.362;8.478;2023-01-25T03:16:13;38.10;;;19.50;;
8526;SDS011;4301;48.362;8.478;2023-01-25T03:18:41;36.60;;;20.40;;
8526;SDS011;4301;48.362;8.478;2023-01-25T03:21:10;38.87;;;20.40;;
8526;SDS011;4301;48.362;8.478;2023-01-25T03:23:37;36.43;;;20.93;;
8526;SDS011;4301;48.362;8.478;2023-01-25T03:26:08;47.03;;;20.53;;
8526;SDS011;4301;48.362;8.478;2023-01-25T03:28:37;43.47;;;20.27;;
8526;SDS011;4301;48.362;8.478;2023-01-25T03:31:05;44.50;;;21.00;;
8526;SDS011;4301;48.362;8.478;2023-01-25T03:33:33;43.10;;;20.53;;
8526;SDS011;4301;48.362;8.478;2023-01-25T03:36:02;52.57;;;20.00;;
8526;SDS011;4301;48.362;8.478;2023-01-25T03:38:29;43.93;;;20.53;;
8526;SDS011;4301;48.362;8.478;2023-01-25T03:40:57;44.50;;;20.47;;
8526;SDS011;4301;48.362;8.478;2023-01-25T03:43:24;44.17;;;20.80;;
8526;SDS011;4301;48.362;8.478;2023-01-25T03:45:51;40.73;;;19.33;;
8526;SDS011;4301;48.362;8.478;2023-01-25T03:48:19;36.10;;;18.83;;
8526;SDS011;4301;48.362;8.478;2023-01-25T03:50:49;41.43;;;19.70;;
8526;SDS011;4301;48.362;8.478;2023-01-25T03:53:24;37.43;;;18.70;;
8526;SDS011;4301;48.362;8.478;2023-01-25T03:55:58;37.30;;;20.23;;
8526;SDS011;4301;48.362;8.478;2023-01-25T03:58:27;35.90;;;19.50;;
8526;SDS011;4301;48.362;8.478;2023-01-25T04:00:55;35.80;;;19.63;;
8526;SDS011;4301;48.362;8.478;2023-01-25T04:03:24;33.50;;;19.10;;
8526;SDS011;4301;48.362;8.478;2023-01-25T04:05:52;35.03;;;19.07;;
8526;SDS011;4301;48.362;8.478;2023-01-25T04:08:21;41.97;;;19.40;;
8526;SDS011;4301;48.362;8.478;2023-01-25T04:10:50;40.23;;;20.27;;
8526;SDS011;4301;48.362;8.478;2023-01-25T04:13:18;37.53;;;18.57;;
8526;SDS011;4301;48.362;8.478;2023-01-25T04:15:45;46.87;;;19.13;;
8526;SDS011;4301;48.362;8.478;2023-01-25T04:18:12;43.13;;;19.07;;
8526;SDS011;4301;48.362;8.478;2023-01-25T04:20:39;43.80;;;19.53;;
8526;SDS011;4301;48.362;8.478;2023-01-25T04:23:06;36.83;;;19.20;;
8526;SDS011;4301;48.362;8.478;2023-01-25T04:25:34;49.33;;;19.60;;
8526;SDS011;4301;48.362;8.478;2023-01-25T04:28:01;40.67;;;20.47;;
8526;SDS011;4301;48.362;8.478;2023-01-25T04:30:28;40.03;;;19.80;;
8526;SDS011;4301;48.362;8.478;2023-01-25T04:32:55;41.73;;;18.90;;
8526;SDS011;4301;48.362;8.478;2023-01-25T04:35:27;36.70;;;20.00;;
8526;SDS011;4301;48.362;8.478;2023-01-25T04:37:54;34.23;;;19.07;;
8526;SDS011;4301;48.362;8.478;2023-01-25T04:40:21;35.93;;;19.37;;
8526;SDS011;4301;48.362;8.478;2023-01-25T04:42:50;37.30;;;19.97;;
8526;SDS011;4301;48.362;8.478;2023-01-25T04:45:17;34.33;;;18.27;;
8526;SDS011;4301;48.362;8.478;2023-01-25T04:47:43;39.97;;;18.97;;
8526;SDS011;4301;48.362;8.478;2023-01-25T04:50:10;37.90;;;19.53;;
8526;SDS011;4301;48.362;8.478;2023-01-25T04:52:37;39.37;;;18.60;;
8526;SDS011;4301;48.362;8.478;2023-01-25T04:55:04;35.00;;;18.43;;
8526;SDS011;4301;48.362;8.478;2023-01-25T04:57:32;31.63;;;17.87;;
8526;SDS011;4301;48.362;8.478;2023-01-25T05:00:00;33.70;;;17.70;;
8526;SDS011;4301;48.362;8.478;2023-01-25T05:02:27;30.37;;;15.63;;
8526;SDS011;4301;48.362;8.478;2023-01-25T05:04:54;29.50;;;16.60;;
8526;SDS011;4301;48.362;8.478;2023-01-25T05:07:21;27.87;;;16.53;;
8526;SDS011;4301;48.362;8.478;2023-01-25T05:09:48;29.63;;;16.73;;
8526;SDS011;4301;48.362;8.478;2023-01-25T05:12:15;32.43;;;16.37;;
8526;SDS011;4301;48.362;8.478;2023-01-25T05:14:42;33.67;;;16.70;;
8526;SDS011;4301;48.362;8.478;2023-01-25T05:17:11;27.33;;;15.70;;
8526;SDS011;4301;48.362;8.478;2023-01-25T05:19:39;28.07;;;15.57;;
8526;SDS011;4301;48.362;8.478;2023-01-25T05:22:06;27.17;;;16.03;;
8526;SDS011;4301;48.362;8.478;2023-01-25T05:24:35;30.53;;;17.53;;
8526;SDS011;4301;48.362;8.478;2023-01-25T05:27:05;29.77;;;17.03;;
8526;SDS011;4301;48.362;8.478;2023-01-25T05:29:32;32.50;;;17.00;;
8526;SDS011;4301;48.362;8.478;2023-01-25T05:32:01;30.77;;;16.87;;
8526;SDS011;4301;48.362;8.478;2023-01-25T05:34:31;30.50;;;16.63;;
8526;SDS011;4301;48.362;8.478;2023-01-25T05:36:58;29.43;;;17.20;;
8526;SDS011;4301;48.362;8.478;2023-01-25T05:39:25;29.70;;;16.80;;
8526;SDS011;4301;48.362;8.478;2023-01-25T05:41:53;28.50;;;16.53;;
8526;SDS011;4301;48.362;8.478;2023-01-25T05:44:20;27.20;;;16.13;;
8526;SDS011;4301;48.362;8.478;2023-01-25T05:46:46;27.67;;;16.27;;
8526;SDS011;4301;48.362;8.478;2023-01-25T05:49:14;28.50;;;15.90;;
8526;SDS011;4301;48.362;8.478;2023-01-25T05:51:42;31.03;;;16.63;;
8526;SDS011;4301;48.362;8.478;2023-01-25T05:54:11;29.33;;;16.80;;
8526;SDS011;4301;48.362;8.478;2023-01-25T05:56:40;29.57;;;17.70;;
8526;SDS011;4301;48.362;8.478;2023-01-25T05:59:08;26.47;;;15.87;;
8526;SDS011;4301;48.362;8.478;2023-01-25T06:01:36;29.52;;;19.42;;
8526;SDS011;4301;48.362;8.478;2023-01-25T06:04:03;24.07;;;16.40;;
8526;SDS011;4301;48.362;8.478;2023-01-25T06:06:30;25.97;;;16.13;;
8526;SDS011;4301;48.362;8.478;2023-01-25T06:08:58;26.70;;;15.43;;
8526;SDS011;4301;48.362;8.478;2023-01-25T06:11:26;30.60;;;17.40;;
8526;SDS011;4301;48.362;8.478;2023-01-25T06:13:53;30.80;;;16.60;;
8526;SDS011;4301;48.362;8.478;2023-01-25T06:16:20;29.10;;;16.97;;
8526;SDS011;4301;48.362;8.478;2023-01-25T06:18:47;31.70;;;16.60;;
8526;SDS011;4301;48.362;8.478;2023-01-25T06:21:14;30.63;;;17.70;;
8526;SDS011;4301;48.362;8.478;2023-01-25T06:23:41;27.80;;;15.67;;
8526;SDS011;4301;48.362;8.478;2023-01-25T06:26:10;24.60;;;14.97;;
8526;SDS011;4301;48.362;8.478;2023-01-25T06:28:38;24.93;;;15.90;;
8526;SDS011;4301;48.362;8.478;2023-01-25T06:31:06;24.58;;;15.07;;
8526;SDS011;4301;48.362;8.478;2023-01-25T06:33:34;21.80;;;14.57;;
8526;SDS011;4301;48.362;8.478;2023-01-25T06:36:02;24.40;;;14.47;;
8526;SDS011;4301;48.362;8.478;2023-01-25T06:38:31;18.87;;;12.70;;
8526;SDS011;4301;48.362;8.478;2023-01-25T06:40:58;20.37;;;13.03;;
8526;SDS011;4301;48.362;8.478;2023-01-25T06:43:27;20.67;;;13.40;;
8526;SDS011;4301;48.362;8.478;2023-01-25T06:45:58;19.88;;;15.32;;
8526;SDS011;4301;48.362;8.478;2023-01-25T06:48:25;18.80;;;13.07;;
8526;SDS011;4301;48.362;8.478;2023-01-25T06:50:54;20.30;;;13.37;;
8526;SDS011;4301;48.362;8.478;2023-01-25T06:53:23;23.63;;;14.13;;
8526;SDS011;4301;48.362;8.478;2023-01-25T06:55:55;22.57;;;14.37;;
8526;SDS011;4301;48.362;8.478;2023-01-25T06:58:23;25.20;;;14.90;;
8526;SDS011;4301;48.362;8.478;2023-01-25T07:00:52;23.73;;;15.10;;
8526;SDS011;4301;48.362;8.478;2023-01-25T07:03:18;25.40;;;15.00;;
8526;SDS011;4301;48.362;8.478;2023-01-25T07:05:45;27.17;;;16.17;;
8526;SDS011;4301;48.362;8.478;2023-01-25T07:08:13;26.20;;;15.60;;
8526;SDS011;4301;48.362;8.478;2023-01-25T07:10:40;24.33;;;15.70;;
8526;SDS011;4301;48.362;8.478;2023-01-25T07:13:07;27.50;;;15.47;;
8526;SDS011;4301;48.362;8.478;2023-01-25T07:15:34;24.47;;;15.87;;
8526;SDS011;4301;48.362;8.478;2023-01-25T07:18:03;25.67;;;16.27;;
8526;SDS011;4301;48.362;8.478;2023-01-25T07:20:30;27.23;;;16.40;;
8526;SDS011;4301;48.362;8.478;2023-01-25T07:22:57;29.23;;;18.03;;
8526;SDS011;4301;48.362;8.478;2023-01-25T07:25:25;25.40;;;15.50;;
8526;SDS011;4301;48.362;8.478;2023-01-25T07:27:52;26.10;;;15.63;;
8526;SDS011;4301;48.362;8.478;2023-01-25T07:30:19;25.20;;;16.17;;
8526;SDS011;4301;48.362;8.478;2023-01-25T07:32:46;27.97;;;16.37;;
8526;SDS011;4301;48.362;8.478;2023-01-25T07:35:14;29.03;;;17.23;;
8526;SDS011;4301;48.362;8.478;2023-01-25T07:37:41;30.13;;;17.87;;
8526;SDS011;4301;48.362;8.478;2023-01-25T07:40:09;30.70;;;17.30;;
8526;SDS011;4301;48.362;8.478;2023-01-25T07:42:37;28.53;;;16.80;;
8526;SDS011;4301;48.362;8.478;2023-01-25T07:45:04;26.63;;;16.30;;
8526;SDS011;4301;48.362;8.478;2023-01-25T07:47:32;27.80;;;16.90;;
8526;SDS011;4301;48.362;8.478;2023-01-25T07:49:59;25.47;;;15.27;;
8526;SDS011;4301;48.362;8.478;2023-01-25T07:52:27;23.10;;;14.60;;
8526;SDS011;4301;48.362;8.478;2023-01-25T07:54:54;25.83;;;15.67;;
8526;SDS011;4301;48.362;8.478;2023-01-25T07:57:21;26.33;;;16.30;;
8526;SDS011;4301;48.362;8.478;2023-01-25T07:59:49;27.50;;;15.47;;
8526;SDS011;4301;48.362;8.478;2023-01-25T08:02:16;23.53;;;14.83;;
8526;SDS011;4301;48.362;8.478;2023-01-25T08:04:43;22.07;;;14.50;;
8526;SDS011;4301;48.362;8.478;2023-01-25T08:07:10;21.70;;;14.50;;
8526;SDS011;4301;48.362;8.478;2023-01-25T08:09:39;24.37;;;15.27;;
8526;SDS011;4301;48.362;8.478;2023-01-25T08:12:06;26.63;;;15.03;;
8526;SDS011;4301;48.362;8.478;2023-01-25T08:14:33;24.90;;;14.70;;
8526;SDS011;4301;48.362;8.478;2023-01-25T08:17:02;22.80;;;14.27;;
8526;SDS011;4301;48.362;8.478;2023-01-25T08:19:29;24.73;;;15.07;;
8526;SDS011;4301;48.362;8.478;2023-01-25T08:21:56;23.93;;;15.37;;
8526;SDS011;4301;48.362;8.478;2023-01-25T08:24:23;25.40;;;16.07;;
8526;SDS011;4301;48.362;8.478;2023-01-25T08:26:51;23.90;;;15.40;;
8526;SDS011;4301;48.362;8.478;2023-01-25T08:29:18;23.03;;;14.63;;
8526;SDS011;4301;48.362;8.478;2023-01-25T08:31:45;24.53;;;15.50;;
8526;SDS011;4301;48.362;8.478;2023-01-25T08:34:12;25.03;;;15.13;;
8526;SDS011;4301;48.362;8.478;2023-01-25T08:36:40;22.80;;;14.90;;
8526;SDS011;4301;48.362;8.478;2023-01-25T08:39:07;25.53;;;16.57;;
8526;SDS011;4301;48.362;8.478;2023-01-25T08:41:36;22.40;;;13.83;;
8526;SDS011;4301;48.362;8.478;2023-01-25T08:44:05;20.97;;;14.43;;
8526;SDS011;4301;48.362;8.478;2023-01-25T08:46:32;24.00;;;14.93;;
8526;SDS011;4301;48.362;8.478;2023-01-25T08:48:59;23.77;;;15.13;;
8526;SDS011;4301;48.362;8.478;2023-01-25T08:51:27;21.83;;;14.43;;
8526;SDS011;4301;48.362;8.478;2023-01-25T08:53:56;19.20;;;13.37;;
8526;SDS011;4301;48.362;8.478;2023-01-25T08:56:27;17.67;;;12.83;;
8526;SDS011;4301;48.362;8.478;2023-01-25T08:58:54;19.33;;;14.40;;
8526;SDS011;4301;48.362;8.478;2023-01-25T09:01:23;20.83;;;14.83;;
8526;SDS011;4301;48.362;8.478;2023-01-25T09:03:50;19.23;;;12.90;;
8526;SDS011;4301;48.362;8.478;2023-01-25T09:06:17;23.43;;;15.27;;
8526;SDS011;4301;48.362;8.478;2023-01-25T09:08:45;21.43;;;14.63;;
8526;SDS011;4301;48.362;8.478;2023-01-25T09:11:13;24.03;;;14.77;;
8526;SDS011;4301;48.362;8.478;2023-01-25T09:13:41;23.30;;;14.77;;
8526;SDS011;4301;48.362;8.478;2023-01-25T09:16:09;24.20;;;16.17;;
8526;SDS011;4301;48.362;8.478;2023-01-25T09:18:38;31.57;;;17.80;;
8526;SDS011;4301;48.362;8.478;2023-01-25T09:21:07;25.10;;;16.73;;
8526;SDS011;4301;48.362;8.478;2023-01-25T09:23:35;24.43;;;15.77;;
8526;SDS011;4301;48.362;8.478;2023-01-25T09:26:03;24.80;;;15.63;;
8526;SDS011;4301;48.362;8.478;2023-01-25T09:28:31;26.07;;;16.20;;
8526;SDS011;4301;48.362;8.478;2023-01-25T09:30:59;25.13;;;15.63;;
8526;SDS011;4301;48.362;8.478;2023-01-25T09:33:27;24.67;;;16.23;;
8526;SDS011;4301;48.362;8.478;2023-01-25T09:35:58;23.47;;;15.13;;
8526;SDS011;4301;48.362;8.478;2023-01-25T09:38:25;19.17;;;13.50;;
8526;SDS011;4301;48.362;8.478;2023-01-25T09:40:56;21.23;;;13.83;;
8526;SDS011;4301;48.362;8.478;2023-01-25T09:43:39;20.67;;;13.40;;
8526;SDS011;4301;48.362;8.478;2023-01-25T09:46:24;16.70;;;12.50;;
8526;SDS011;4301;48.362;8.478;2023-01-25T09:48:59;19.13;;;13.23;;
8526;SDS011;4301;48.362;8.478;2023-01-25T09:51:44;20.77;;;13.93;;
8526;SDS011;4301;48.362;8.478;2023-01-25T09:54:24;18.70;;;13.93;;
8526;SDS011;4301;48.362;8.478;2023-01-25T09:56:53;18.33;;;13.07;;
8526;SDS011;4301;48.362;8.478;2023-01-25T09:59:22;18.90;;;13.40;;
8526;SDS011;4301;48.362;8.478;2023-01-25T10:01:55;19.37;;;12.80;;
8526;SDS011;4301;48.362;8.478;2023-01-25T10:04:25;17.37;;;12.90;;
8526;SDS011;4301;48.362;8.478;2023-01-25T10:06:58;17.50;;;12.80;;
8526;SDS011;4301;48.362;8.478;2023-01-25T10:09:34;19.67;;;13.73;;
8526;SDS011;4301;48.362;8.478;2023-01-25T10:12:09;18.40;;;13.23;;
8526;SDS011;4301;48.362;8.478;2023-01-25T10:14:41;17.57;;;12.93;;
8526;SDS011;4301;48.362;8.478;2023-01-25T10:17:10;20.00;;;12.83;;
8526;SDS011;4301;48.362;8.478;2023-01-25T10:19:45;17.77;;;13.20;;
8526;SDS011;4301;48.362;8.478;2023-01-25T10:22:22;18.67;;;13.00;;
8526;SDS011;4301;48.362;8.478;2023-01-25T10:24:57;18.63;;;12.60;;
8526;SDS011;4301;48.362;8.478;2023-01-25T10:27:43;18.00;;;12.83;;
8526;SDS011;4301;48.362;8.478;2023-01-25T10:30:19;18.77;;;14.00;;
8526;SDS011;4301;48.362;8.478;2023-01-25T10:32:52;18.17;;;13.67;;
8526;SDS011;4301;48.362;8.478;2023-01-25T10:35:24;18.17;;;13.33;;
8526;SDS011;4301;48.362;8.478;2023-01-25T10:37:57;21.07;;;14.63;;
8526;SDS011;4301;48.362;8.478;2023-01-25T10:40:29;24.60;;;15.47;;
8526;SDS011;4301;48.362;8.478;2023-01-25T10:43:05;21.70;;;14.67;;
8526;SDS011;4301;48.362;8.478;2023-01-25T10:45:37;22.83;;;15.70;;
8526;SDS011;4301;48.362;8.478;2023-01-25T10:48:08;22.63;;;14.77;;
8526;SDS011;4301;48.362;8.478;2023-01-25T10:50:42;25.80;;;16.37;;
8526;SDS011;4301;48.362;8.478;2023-01-25T10:53:23;24.47;;;15.80;;
8526;SDS011;4301;48.362;8.478;2023-01-25T10:55:54;26.50;;;17.07;;
8526;SDS011;4301;48.362;8.478;2023-01-25T10:58:29;23.93;;;15.90;;
8526;SDS011;4301;48.362;8.478;2023-01-25T11:00:57;24.87;;;16.27;;
8526;SDS011;4301;48.362;8.478;2023-01-25T11:03:32;24.60;;;15.40;;
8526;SDS011;4301;48.362;8.478;2023-01-25T11:06:01;23.80;;;15.47;;
8526;SDS011;4301;48.362;8.478;2023-01-25T11:08:33;21.97;;;14.63;;
8526;SDS011;4301;48.362;8.478;2023-01-25T11:11:11;22.13;;;14.30;;
8526;SDS011;4301;48.362;8.478;2023-01-25T11:13:48;22.73;;;15.93;;
8526;SDS011;4301;48.362;8.478;2023-01-25T11:16:18;23.03;;;15.17;;
8526;SDS011;4301;48.362;8.478;2023-01-25T11:18:53;21.23;;;15.07;;
8526;SDS011;4301;48.362;8.478;2023-01-25T11:21:22;26.30;;;15.77;;
8526;SDS011;4301;48.362;8.478;2023-01-25T11:24:01;22.53;;;15.33;;
8526;SDS011;4301;48.362;8.478;2023-01-25T11:26:40;23.07;;;15.03;;
8526;SDS011;4301;48.362;8.478;2023-01-25T11:29:11;22.87;;;15.67;;
8526;SDS011;4301;48.362;8.478;2023-01-25T11:31:40;24.63;;;16.20;;
8526;SDS011;4301;48.362;8.478;2023-01-25T11:34:10;25.47;;;15.67;;
8526;SDS011;4301;48.362;8.478;2023-01-25T11:36:41;24.80;;;16.33;;
8526;SDS011;4301;48.362;8.478;2023-01-25T11:39:39;24.83;;;16.40;;
8526;SDS011;4301;48.362;8.478;2023-01-25T11:42:16;28.00;;;16.47;;
8526;SDS011;4301;48.362;8.478;2023-01-25T11:45:01;26.47;;;17.70;;
8526;SDS011;4301;48.362;8.478;2023-01-25T11:47:59;29.20;;;18.27;;
8526;SDS011;4301;48.362;8.478;2023-01-25T11:50:39;26.00;;;18.10;;
8526;SDS011;4301;48.362;8.478;2023-01-25T11:53:18;27.67;;;17.40;;
8526;SDS011;4301;48.362;8.478;2023-01-25T11:55:57;26.00;;;17.13;;
8526;SDS011;4301;48.362;8.478;2023-01-25T11:58:35;24.97;;;17.13;;
8526;SDS011;4301;48.362;8.478;2023-01-25T12:01:13;31.73;;;17.57;;
8526;SDS011;4301;48.362;8.478;2023-01-25T12:06:51;27.93;;;17.03;;
8526;SDS011;4301;48.362;8.478;2023-01-25T12:09:29;28.47;;;17.83;;
8526;SDS011;4301;48.362;8.478;2023-01-25T12:12:23;26.17;;;17.87;;
8526;SDS011;4301;48.362;8.478;2023-01-25T12:15:00;27.63;;;17.87;;
8526;SDS011;4301;48.362;8.478;2023-01-25T12:17:55;25.53;;;16.13;;
8526;SDS011;4301;48.362;8.478;2023-01-25T12:20:56;26.90;;;17.50;;
8526;SDS011;4301;48.362;8.478;2023-01-25T12:26:30;28.13;;;17.73;;
8526;SDS011;4301;48.362;8.478;2023-01-25T12:29:17;25.90;;;17.63;;
8526;SDS011;4301;48.362;8.478;2023-01-25T12:31:49;23.97;;;16.50;;
8526;SDS011;4301;48.362;8.478;2023-01-25T12:34:20;27.43;;;18.00;;
8526;SDS011;4301;48.362;8.478;2023-01-25T12:36:50;26.00;;;17.00;;
8526;SDS011;4301;48.362;8.478;2023-01-25T12:39:19;27.20;;;17.17;;
8526;SDS011;4301;48.362;8.478;2023-01-25T12:41:50;28.40;;;17.90;;
8526;SDS011;4301;48.362;8.478;2023-01-25T12:44:24;24.47;;;16.37;;
8526;SDS011;4301;48.362;8.478;2023-01-25T12:46:56;25.93;;;17.27;;
8526;SDS011;4301;48.362;8.478;2023-01-25T12:49:31;27.73;;;17.87;;
8526;SDS011;4301;48.362;8.478;2023-01-25T12:52:04;26.20;;;16.83;;
8526;SDS011;4301;48.362;8.478;2023-01-25T12:54:41;22.20;;;15.57;;
8526;SDS011;4301;48.362;8.478;2023-01-25T12:57:12;24.17;;;16.50;;
8526;SDS011;4301;48.362;8.478;2023-01-25T12:59:48;26.23;;;17.67;;
8526;SDS011;4301;48.362;8.478;2023-01-25T13:05:28;30.27;;;18.77;;
8526;SDS011;4301;48.362;8.478;2023-01-25T13:08:04;27.97;;;17.90;;
8526;SDS011;4301;48.362;8.478;2023-01-25T13:10:39;29.30;;;18.43;;
8526;SDS011;4301;48.362;8.478;2023-01-25T13:13:17;29.73;;;19.23;;
8526;SDS011;4301;48.362;8.478;2023-01-25T13:15:48;29.10;;;18.50;;
8526;SDS011;4301;48.362;8.478;2023-01-25T13:21:08;28.27;;;18.90;;
8526;SDS011;4301;48.362;8.478;2023-01-25T13:23:38;30.27;;;20.73;;
8526;SDS011;4301;48.362;8.478;2023-01-25T13:29:02;40.37;;;27.17;;
8526;SDS011;4301;48.362;8.478;2023-01-25T13:31:43;33.00;;;21.87;;
8526;SDS011;4301;48.362;8.478;2023-01-25T13:34:11;30.03;;;19.60;;
8526;SDS011;4301;48.362;8.478;2023-01-25T13:36:58;28.83;;;18.17;;
8526;SDS011;4301;48.362;8.478;2023-01-25T13:39:39;26.87;;;17.30;;
8526;SDS011;4301;48.362;8.478;2023-01-25T13:42:18;38.93;;;24.77;;
8526;SDS011;4301;48.362;8.478;2023-01-25T13:44:47;36.93;;;24.50;;
8526;SDS011;4301;48.362;8.478;2023-01-25T13:47:18;34.87;;;22.27;;
8526;SDS011;4301;48.362;8.478;2023-01-25T13:49:49;40.73;;;26.83;;
8526;SDS011;4301;48.362;8.478;2023-01-25T13:52:21;36.23;;;22.70;;
8526;SDS011;4301;48.362;8.478;2023-01-25T13:54:52;47.13;;;30.63;;
8526;SDS011;4301;48.362;8.478;2023-01-25T13:57:21;35.87;;;23.23;;
8526;SDS011;4301;48.362;8.478;2023-01-25T13:59:56;38.17;;;22.60;;
8526;SDS011;4301;48.362;8.478;2023-01-25T14:02:26;31.97;;;19.10;;
8526;SDS011;4301;48.362;8.478;2023-01-25T14:04:54;28.97;;;18.03;;
8526;SDS011;4301;48.362;8.478;2023-01-25T14:07:24;30.23;;;17.33;;
8526;SDS011;4301;48.362;8.478;2023-01-25T14:12:30;29.57;;;18.83;;
8526;SDS011;4301;48.362;8.478;2023-01-25T14:15:09;28.57;;;18.90;;
8526;SDS011;4301;48.362;8.478;2023-01-25T14:17:45;30.97;;;18.47;;
8526;SDS011;4301;48.362;8.478;2023-01-25T14:20:27;31.10;;;18.47;;
8526;SDS011;4301;48.362;8.478;2023-01-25T14:22:54;31.37;;;17.90;;
8526;SDS011;4301;48.362;8.478;2023-01-25T14:25:21;30.37;;;18.27;;
8526;SDS011;4301;48.362;8.478;2023-01-25T14:27:50;30.73;;;18.50;;
8526;SDS011;4301;48.362;8.478;2023-01-25T14:30:19;32.83;;;19.53;;
8526;SDS011;4301;48.362;8.478;2023-01-25T14:32:49;34.07;;;21.27;;
8526;SDS011;4301;48.362;8.478;2023-01-25T14:35:30;30.17;;;18.53;;
8526;SDS011;4301;48.362;8.478;2023-01-25T14:38:07;32.07;;;18.57;;
8526;SDS011;4301;48.362;8.478;2023-01-25T14:40:47;31.57;;;19.37;;
8526;SDS011;4301;48.362;8.478;2023-01-25T14:43:15;29.60;;;17.83;;
8526;SDS011;4301;48.362;8.478;2023-01-25T14:45:43;31.30;;;19.63;;
8526;SDS011;4301;48.362;8.478;2023-01-25T14:51:03;34.27;;;19.83;;
8526;SDS011;4301;48.362;8.478;2023-01-25T14:53:43;40.80;;;24.30;;
8526;SDS011;4301;48.362;8.478;2023-01-25T14:56:16;43.80;;;26.13;;
8526;SDS011;4301;48.362;8.478;2023-01-25T14:58:56;52.40;;;30.50;;
8526;SDS011;4301;48.362;8.478;2023-01-25T15:01:26;41.43;;;24.00;;
8526;SDS011;4301;48.362;8.478;2023-01-25T15:03:57;33.47;;;21.33;;
8526;SDS011;4301;48.362;8.478;2023-01-25T15:06:24;34.10;;;21.43;;
8526;SDS011;4301;48.362;8.478;2023-01-25T15:08:52;37.97;;;24.57;;
8526;SDS011;4301;48.362;8.478;2023-01-25T15:11:29;39.70;;;23.43;;
8526;SDS011;4301;48.362;8.478;2023-01-25T15:14:15;32.80;;;20.33;;
8526;SDS011;4301;48.362;8.478;2023-01-25T15:16:43;36.90;;;20.43;;
8526;SDS011;4301;48.362;8.478;2023-01-25T15:19:22;43.73;;;25.57;;
8526;SDS011;4301;48.362;8.478;2023-01-25T15:21:53;33.57;;;20.83;;
8526;SDS011;4301;48.362;8.478;2023-01-25T15:24:20;37.23;;;21.97;;
8526;SDS011;4301;48.362;8.478;2023-01-25T15:26:48;31.93;;;18.87;;
8526;SDS011;4301;48.362;8.478;2023-01-25T15:29:17;36.00;;;21.50;;